createdAt,value
2022-08-05T00:00:00.687Z,100357.00
2022-08-05T00:05:00.489Z,100353.00
2022-08-05T00:10:02.621Z,100359.00
2022-08-05T00:15:54.280Z,100357.00
2022-08-05T00:20:04.551Z,100357.00
2022-08-05T00:25:08.376Z,100357.00
2022-08-05T00:30:11.335Z,100359.00
2022-08-05T00:35:10.484Z,100355.00
2022-08-05T00:40:10.562Z,100353.00
2022-08-05T00:45:11.602Z,100353.00
2022-08-05T00:50:11.636Z,100349.00
2022-08-05T00:55:13.605Z,100347.00
2022-08-05T01:00:16.882Z,100349.00
2022-08-05T01:05:16.531Z,100359.00
2022-08-05T01:10:16.624Z,100374.00
2022-08-05T01:15:36.489Z,100386.00
2022-08-05T01:20:20.556Z,100392.00
2022-08-05T01:25:22.558Z,100398.00
2022-08-05T01:30:33.504Z,100398.00
2022-08-05T01:35:51.919Z,100400.00
2022-08-05T01:40:29.097Z,100396.00
2022-08-05T01:45:34.858Z,100410.00
2022-08-05T01:50:31.648Z,100421.00
2022-08-05T01:55:31.586Z,100431.00
2022-08-05T02:00:33.565Z,100433.00
2022-08-05T02:05:34.177Z,100449.00
2022-08-05T02:10:34.807Z,100474.00
2022-08-05T02:15:34.572Z,100486.00
2022-08-05T02:20:39.074Z,100482.00
2022-08-05T02:25:49.260Z,100490.00
2022-08-05T02:30:38.599Z,100496.00
2022-08-05T02:35:50.954Z,100505.00
2022-08-05T02:40:45.611Z,100515.00
2022-08-05T02:45:52.501Z,100533.00
2022-08-05T02:50:51.319Z,100555.00
2022-08-05T02:55:59.510Z,100583.00
2022-08-05T03:00:54.607Z,100618.00
2022-08-05T03:06:55.891Z,100587.00
2022-08-05T03:11:53.469Z,100529.00
2022-08-05T03:15:58.730Z,100437.00
2022-08-05T03:20:58.659Z,100380.00
2022-08-05T03:26:04.628Z,100384.00
2022-08-05T03:31:01.698Z,100400.00
2022-08-05T03:36:01.754Z,100427.00
2022-08-05T03:41:04.001Z,100464.00
2022-08-05T03:46:08.223Z,100482.00
2022-08-05T03:52:38.383Z,100490.00
2022-08-05T03:56:18.088Z,100492.00
2022-08-05T04:01:13.040Z,100490.00
2022-08-05T04:06:13.653Z,100486.00
2022-08-05T04:11:13.640Z,100478.00
2022-08-05T04:16:15.674Z,100474.00
2022-08-05T04:21:45.729Z,100464.00
2022-08-05T04:26:19.711Z,100441.00
2022-08-05T04:31:19.904Z,100431.00
2022-08-05T04:36:44.795Z,100427.00
2022-08-05T04:41:21.680Z,100441.00
2022-08-05T04:46:28.135Z,100460.00
2022-08-05T04:51:25.778Z,100466.00
2022-08-05T04:56:34.244Z,100476.00
2022-08-05T05:02:04.040Z,100486.00
2022-08-05T05:06:40.348Z,100490.00
2022-08-05T05:11:42.148Z,100474.00
2022-08-05T05:16:35.691Z,100482.00
2022-08-05T05:21:35.701Z,100488.00
2022-08-05T05:26:35.699Z,100484.00
2022-08-05T05:36:35.378Z,100484.00
2022-08-05T05:41:40.915Z,100492.00
2022-08-05T05:46:38.717Z,100496.00
2022-08-05T05:51:49.528Z,100500.00
2022-08-05T05:56:41.847Z,100496.00
2022-08-05T06:01:57.593Z,100502.00
2022-08-05T06:06:47.607Z,100502.00
2022-08-05T06:11:59.245Z,100500.00
2022-08-05T06:16:48.831Z,100500.00
2022-08-05T06:21:49.680Z,100507.00
2022-08-05T06:26:51.571Z,100513.00
2022-08-05T06:31:51.812Z,100521.00
2022-08-05T06:36:57.205Z,100547.00
2022-08-05T06:41:53.765Z,100555.00
2022-08-05T06:46:54.390Z,100561.00
2022-08-05T06:51:54.786Z,100563.00
2022-08-05T06:57:57.691Z,100563.00
2022-08-05T07:01:56.803Z,100563.00
2022-08-05T07:06:56.887Z,100563.00
2022-08-05T07:12:00.481Z,100565.00
2022-08-05T07:17:59.044Z,100563.00
2022-08-05T07:22:02.730Z,100575.00
2022-08-05T07:27:03.004Z,100583.00
2022-08-05T07:32:03.955Z,100590.00
2022-08-05T07:37:03.864Z,100596.00
2022-08-05T07:42:13.453Z,100606.00
2022-08-05T07:47:07.872Z,100612.00
2022-08-05T07:52:07.804Z,100616.00
2022-08-05T07:57:18.114Z,100622.00
2022-08-05T08:02:16.694Z,100634.00
2022-08-05T08:07:13.947Z,100639.00
2022-08-05T08:12:33.472Z,100649.00
2022-08-05T08:17:16.982Z,100665.00
2022-08-05T08:22:16.891Z,100673.00
2022-08-05T08:27:17.213Z,100677.00
2022-08-05T08:32:21.449Z,100683.00
2022-08-05T08:37:19.125Z,100694.00
2022-08-05T08:42:34.597Z,100698.00
2022-08-05T08:47:47.034Z,100704.00
2022-08-05T08:52:26.438Z,100706.00
2022-08-05T08:57:29.307Z,100710.00
2022-08-05T09:02:29.019Z,100722.00
2022-08-05T09:07:39.899Z,100731.00
2022-08-05T09:12:31.451Z,100747.00
2022-08-05T09:17:41.200Z,100753.00
2022-08-05T09:22:35.314Z,100761.00
2022-08-05T09:28:04.857Z,100759.00
2022-08-05T09:32:40.852Z,100765.00
2022-08-05T09:38:12.918Z,100771.00
2022-08-05T09:42:43.263Z,100771.00
2022-08-05T09:47:48.030Z,100775.00
2022-08-05T09:52:47.995Z,100778.00
2022-08-05T09:57:50.026Z,100782.00
2022-08-05T10:02:54.191Z,100782.00
2022-08-05T10:08:35.203Z,100803.00
2022-08-05T10:12:56.054Z,100811.00
2022-08-05T10:17:57.643Z,100819.00
2022-08-05T10:22:58.536Z,100824.00
2022-08-05T10:28:16.645Z,100832.00
2022-08-05T10:33:02.802Z,100840.00
2022-08-05T10:38:02.947Z,100850.00
2022-08-05T10:43:04.701Z,100858.00
2022-08-05T10:48:30.341Z,100863.00
2022-08-05T10:53:07.007Z,100871.00
2022-08-05T10:58:07.728Z,100871.00
2022-08-05T11:03:25.226Z,100875.00
2022-08-05T11:08:33.847Z,100881.00
2022-08-05T11:13:12.978Z,100885.00
2022-08-05T11:18:15.421Z,100891.00
2022-08-05T11:23:15.987Z,100899.00
2022-08-05T11:28:18.027Z,100899.00
2022-08-05T11:33:21.076Z,100897.00
2022-08-05T11:38:37.400Z,100893.00
2022-08-05T11:44:04.444Z,100889.00
2022-08-05T11:48:25.216Z,100885.00
2022-08-05T11:53:26.044Z,100887.00
2022-08-05T11:58:28.182Z,100887.00
2022-08-05T12:03:31.653Z,100885.00
2022-08-05T12:08:31.520Z,100885.00
2022-08-05T12:13:48.454Z,100885.00
2022-08-05T12:18:34.030Z,100893.00
2022-08-05T12:23:36.295Z,100897.00
2022-08-05T12:28:38.047Z,100899.00
2022-08-05T12:33:38.858Z,100901.00
2022-08-05T12:38:39.692Z,100903.00
2022-08-05T12:43:40.191Z,100907.00
2022-08-05T12:48:41.074Z,100913.00
2022-08-05T12:53:43.283Z,100920.00
2022-08-05T12:58:53.087Z,100920.00
2022-08-05T13:03:48.857Z,100928.00
2022-08-05T13:08:51.964Z,100932.00
2022-08-05T13:14:04.991Z,100932.00
2022-08-05T13:18:53.141Z,100936.00
2022-08-05T13:23:55.168Z,100940.00
2022-08-05T13:28:55.212Z,100944.00
2022-08-05T13:34:24.420Z,100944.00
2022-08-05T13:38:57.219Z,100948.00
2022-08-05T13:43:57.188Z,100958.00
2022-08-05T13:49:00.652Z,100971.00
2022-08-05T13:53:59.197Z,100973.00
2022-08-05T13:59:06.264Z,100979.00
2022-08-05T14:04:21.416Z,100985.00
2022-08-05T14:09:21.800Z,100987.00
2022-08-05T14:14:23.375Z,100983.00
2022-08-05T14:19:24.147Z,100991.00
2022-08-05T14:24:26.217Z,100995.00
2022-08-05T14:29:26.259Z,101001.00
2022-08-05T14:34:26.189Z,101011.00
2022-08-05T14:39:26.251Z,101009.00
2022-08-05T14:44:27.215Z,101007.00
2022-08-05T14:49:56.519Z,101007.00
2022-08-05T14:54:33.647Z,101005.00
2022-08-05T14:59:35.349Z,101007.00
2022-08-05T15:04:35.312Z,101007.00
2022-08-05T15:09:51.430Z,101005.00
2022-08-05T15:14:48.429Z,101001.00
2022-08-05T15:19:39.331Z,101001.00
2022-08-05T15:24:41.407Z,101005.00
2022-08-05T15:29:41.787Z,101007.00
2022-08-05T15:34:42.209Z,101011.00
2022-08-05T15:41:01.024Z,101009.00
2022-08-05T15:44:44.378Z,101011.00
2022-08-05T15:49:56.846Z,101012.00
2022-08-05T15:54:46.311Z,101009.00
2022-08-05T15:59:46.315Z,101012.00
2022-08-05T16:04:46.282Z,101014.00
2022-08-05T16:09:46.309Z,101016.00
2022-08-05T16:14:46.276Z,101014.00
2022-08-05T16:20:04.442Z,101018.00
2022-08-05T16:24:52.002Z,101020.00
2022-08-05T16:29:50.922Z,101024.00
2022-08-05T16:34:51.379Z,101030.00
2022-08-05T16:40:05.892Z,101040.00
2022-08-05T16:44:57.049Z,101046.00
2022-08-05T16:49:56.325Z,101060.00
2022-08-05T16:54:56.362Z,101070.00
2022-08-05T17:00:04.260Z,101070.00
2022-08-05T17:05:00.347Z,101072.00
2022-08-05T17:10:00.488Z,101082.00
2022-08-05T17:15:02.404Z,101082.00
2022-08-05T17:20:03.565Z,101086.00
2022-08-05T17:25:03.286Z,101088.00
2022-08-05T17:30:11.919Z,101090.00
2022-08-05T17:35:07.519Z,101090.00
2022-08-05T17:40:10.178Z,101099.00
2022-08-05T17:45:18.013Z,101103.00
2022-08-05T17:50:11.474Z,101105.00
2022-08-05T17:55:12.795Z,101111.00
2022-08-05T18:00:14.262Z,101117.00
2022-08-05T18:05:16.947Z,101127.00
2022-08-05T18:10:20.779Z,101131.00
2022-08-05T18:15:18.399Z,101139.00
2022-08-05T18:20:18.355Z,101144.00
2022-08-05T18:25:18.399Z,101150.00
2022-08-05T18:30:18.457Z,101160.00
2022-08-05T18:35:18.396Z,101168.00
2022-08-05T18:40:57.571Z,101180.00
2022-08-05T18:45:20.603Z,101190.00
2022-08-05T18:50:45.167Z,101190.00
2022-08-05T18:55:40.486Z,101197.00
2022-08-05T19:00:40.498Z,101201.00
2022-08-05T19:06:11.283Z,101209.00
2022-08-05T19:10:44.445Z,101215.00
2022-08-05T19:15:59.192Z,101221.00
2022-08-05T19:20:47.518Z,101223.00
2022-08-05T19:25:47.395Z,101235.00
2022-08-05T19:30:49.490Z,101238.00
2022-08-05T19:35:56.599Z,101248.00
2022-08-05T19:40:51.511Z,101258.00
2022-08-05T19:45:54.569Z,101272.00
2022-08-05T19:50:54.475Z,101284.00
2022-08-05T19:56:15.400Z,101293.00
2022-08-05T20:00:56.491Z,101301.00
2022-08-05T20:05:57.968Z,101307.00
2022-08-05T20:10:58.585Z,101324.00
2022-08-05T20:15:59.758Z,101335.00
2022-08-05T20:21:00.099Z,101339.00
2022-08-05T20:26:00.515Z,101349.00
2022-08-05T20:31:00.483Z,101351.00
2022-08-05T20:36:01.992Z,101363.00
2022-08-05T20:41:04.488Z,101373.00
2022-08-05T20:46:03.575Z,101377.00
2022-08-05T20:51:08.160Z,101388.00
2022-08-05T20:56:08.694Z,101394.00
2022-08-05T21:01:07.595Z,101398.00
2022-08-05T21:06:28.389Z,101396.00
2022-08-05T21:11:10.207Z,101400.00
2022-08-05T21:16:11.708Z,101406.00
2022-08-05T21:21:11.465Z,101412.00
2022-08-05T21:26:14.381Z,101416.00
2022-08-05T21:31:13.499Z,101418.00
2022-08-05T21:36:13.557Z,101418.00
2022-08-05T21:41:16.043Z,101427.00
2022-08-05T21:46:17.546Z,101433.00
2022-08-05T21:52:15.510Z,101437.00
2022-08-05T21:56:21.707Z,101439.00
2022-08-05T22:01:24.210Z,101441.00
2022-08-05T22:06:37.072Z,101449.00
2022-08-05T22:11:34.661Z,101453.00
2022-08-05T22:16:41.999Z,101459.00
2022-08-05T22:21:33.545Z,101463.00
2022-08-05T22:26:51.876Z,101467.00
2022-08-05T22:31:55.210Z,101469.00
2022-08-05T22:36:53.540Z,101474.00
2022-08-05T22:42:09.847Z,101471.00
2022-08-05T22:46:55.625Z,101476.00
2022-08-05T22:52:06.019Z,101480.00
2022-08-05T22:56:57.651Z,101488.00
2022-08-05T23:02:05.489Z,101492.00
2022-08-05T23:06:59.646Z,101500.00
2022-08-05T23:11:59.731Z,101512.00
2022-08-05T23:17:18.621Z,101516.00
2022-08-05T23:22:19.841Z,101518.00
2022-08-05T23:27:22.681Z,101523.00
2022-08-05T23:32:23.837Z,101529.00
2022-08-05T23:37:26.613Z,101535.00
2022-08-05T23:42:29.449Z,101547.00
2022-08-05T23:47:28.632Z,101551.00
2022-08-05T23:52:32.195Z,101559.00
2022-08-05T23:57:33.705Z,101559.00
